TimeCDT,TemperatureF,Dew PointF,Humidity,Sea Level PressureIn,VisibilityMPH,Wind Direction,Wind SpeedMPH,Gust SpeedMPH,PrecipitationIn,Events,Conditions,WindDirDegrees,DateUTC
12:23 AM,68.0,62.6,83,30.05,10.0,SSE,18.4,-,N/A,,Scattered Clouds,150,2013-05-25 05:23:00
12:31 AM,68.0,62.6,83,30.05,10.0,SSE,18.4,-,N/A,,Mostly Cloudy,160,2013-05-25 05:31:00
12:55 AM,68.0,62.1,81,30.01,10.0,SSE,17.3,23.0,N/A,,Overcast,160,2013-05-25 05:55:00
1:55 AM,66.9,63.0,87,29.98,10.0,South,12.7,-,N/A,,Overcast,170,2013-05-25 06:55:00
2:55 AM,68.0,64.0,87,29.99,10.0,South,16.1,25.3,N/A,,Overcast,170,2013-05-25 07:55:00
3:55 AM,69.1,64.9,87,29.99,10.0,South,17.3,25.3,N/A,,Mostly Cloudy,180,2013-05-25 08:55:00
4:13 AM,69.8,64.4,83,30.03,10.0,South,16.1,25.3,N/A,,Scattered Clouds,180,2013-05-25 09:13:00
4:45 AM,69.8,64.4,83,30.08,10.0,NE,9.2,-,N/A,,Mostly Cloudy,40,2013-05-25 09:45:00
4:55 AM,69.1,64.9,87,30.05,10.0,NNE,8.1,-,N/A,,Overcast,30,2013-05-25 09:55:00
5:55 AM,68.0,61.0,78,30.05,10.0,NE,6.9,-,N/A,,Overcast,50,2013-05-25 10:55:00
6:44 AM,64.4,57.2,77,30.07,10.0,East,8.1,-,N/A,,Scattered Clouds,90,2013-05-25 11:44:00
6:55 AM,64.0,57.9,80,30.04,10.0,ESE,8.1,-,N/A,,Partly Cloudy,110,2013-05-25 11:55:00
7:55 AM,64.9,57.9,78,30.09,10.0,ENE,4.6,-,N/A,,Mostly Cloudy,70,2013-05-25 12:55:00
8:55 AM,70.0,62.1,76,30.06,10.0,ESE,6.9,-,N/A,,Clear,110,2013-05-25 13:55:00
9:55 AM,75.0,63.0,66,30.04,10.0,South,12.7,-,N/A,,Clear,190,2013-05-25 14:55:00
10:55 AM,77.0,63.0,62,30.01,10.0,South,9.2,18.4,N/A,,Clear,180,2013-05-25 15:55:00
11:55 AM,79.0,62.1,56,29.99,10.0,South,17.3,24.2,N/A,,Clear,180,2013-05-25 16:55:00
12:55 PM,80.1,62.1,54,29.95,10.0,South,16.1,29.9,N/A,,Clear,180,2013-05-25 17:55:00
1:55 PM,79.0,62.1,56,29.93,10.0,South,20.7,31.1,N/A,,Clear,170,2013-05-25 18:55:00
2:55 PM,81.0,63.0,54,29.93,10.0,South,25.3,35.7,N/A,,Partly Cloudy,190,2013-05-25 19:55:00
3:55 PM,82.9,63.0,51,29.92,10.0,South,27.6,36.8,N/A,,Partly Cloudy,180,2013-05-25 20:55:00
4:55 PM,82.9,62.1,49,29.91,10.0,South,23.0,33.4,N/A,,Partly Cloudy,190,2013-05-25 21:55:00
5:55 PM,82.0,62.1,51,29.90,10.0,South,20.7,33.4,N/A,,Clear,180,2013-05-25 22:55:00
6:55 PM,81.0,63.0,54,29.88,10.0,South,16.1,28.8,N/A,,Clear,180,2013-05-25 23:55:00
7:55 PM,78.1,63.0,60,29.90,10.0,South,10.4,-,N/A,,Clear,170,2013-05-26 00:55:00
8:55 PM,73.9,64.0,71,29.91,10.0,SSE,11.5,-,N/A,,Partly Cloudy,160,2013-05-26 01:55:00
9:55 PM,73.9,64.0,71,29.93,10.0,SSE,12.7,-,N/A,,Clear,160,2013-05-26 02:55:00
10:55 PM,72.0,63.0,73,29.94,10.0,SSE,11.5,-,N/A,,Clear,160,2013-05-26 03:55:00
11:55 PM,71.1,64.0,78,29.94,10.0,SSE,11.5,-,N/A,,Clear,160,2013-05-26 04:55:00